createdAt,value
2022-10-09T00:04:25.073Z,0.80
2022-10-09T00:09:27.975Z,0.80
2022-10-09T00:14:32.354Z,0.70
2022-10-09T00:19:35.334Z,0.93
2022-10-09T00:24:38.331Z,0.70
2022-10-09T00:29:43.067Z,0.60
2022-10-09T00:34:48.619Z,0.83
2022-10-09T00:39:51.533Z,0.90
2022-10-09T00:44:59.920Z,1.00
2022-10-09T00:50:11.134Z,1.00
2022-10-09T00:55:15.729Z,1.00
2022-10-09T01:00:21.322Z,0.97
2022-10-09T01:05:31.072Z,0.90
2022-10-09T01:10:42.260Z,0.97
2022-10-09T01:15:53.956Z,0.90
2022-10-09T01:21:02.543Z,0.67
2022-10-09T01:26:16.259Z,0.90
2022-10-09T01:31:23.759Z,0.90
2022-10-09T01:36:27.964Z,0.53
2022-10-09T01:41:31.476Z,0.60
2022-10-09T01:46:35.918Z,0.90
2022-10-09T01:51:49.168Z,0.80
2022-10-09T01:56:56.000Z,0.70
2022-10-09T02:02:01.322Z,0.60
2022-10-09T02:07:05.724Z,0.67
2022-10-09T02:12:11.045Z,0.90
2022-10-09T02:17:19.521Z,0.90
2022-10-09T02:22:27.106Z,0.80
2022-10-09T02:27:30.528Z,0.90
2022-10-09T02:32:34.844Z,0.90
2022-10-09T02:37:38.919Z,0.80
2022-10-09T02:42:41.881Z,0.90
2022-10-09T02:47:46.141Z,0.80
2022-10-09T02:52:49.368Z,0.97
2022-10-09T02:57:52.457Z,0.97
2022-10-09T03:02:57.180Z,0.70
2022-10-09T03:08:00.319Z,0.70
2022-10-09T03:13:03.243Z,0.90
2022-10-09T03:18:07.604Z,0.70
2022-10-09T03:23:10.579Z,0.93
2022-10-09T03:28:13.542Z,0.70
2022-10-09T03:33:17.853Z,0.67
2022-10-09T03:38:21.034Z,0.50
2022-10-09T03:43:24.008Z,0.80
2022-10-09T03:48:28.267Z,0.80
2022-10-09T03:53:31.647Z,0.80
2022-10-09T03:58:34.829Z,0.80
2022-10-09T04:03:39.326Z,0.73
2022-10-09T04:08:42.334Z,0.90
2022-10-09T04:13:45.361Z,0.77
2022-10-09T04:18:49.698Z,0.80
2022-10-09T04:23:53.962Z,0.83
2022-10-09T04:28:58.236Z,0.80
2022-10-09T04:34:02.562Z,0.83
2022-10-09T04:39:05.847Z,0.67
2022-10-09T04:44:08.885Z,0.70
2022-10-09T04:49:14.783Z,0.73
2022-10-09T04:54:17.772Z,0.60
2022-10-09T04:59:20.766Z,0.70
2022-10-09T05:04:25.067Z,0.70
2022-10-09T05:09:28.043Z,0.80
2022-10-09T05:14:30.974Z,0.77
2022-10-09T05:19:35.553Z,0.47
2022-10-09T05:24:38.524Z,0.50
2022-10-09T05:29:41.443Z,0.40
2022-10-09T05:34:45.743Z,0.50
2022-10-09T05:39:48.731Z,0.60
2022-10-09T05:44:51.648Z,0.60
2022-10-09T05:49:55.920Z,0.60
2022-10-09T05:54:58.837Z,0.90
2022-10-09T06:00:01.787Z,0.50
2022-10-09T06:05:16.923Z,0.73
2022-10-09T06:10:19.935Z,0.60
2022-10-09T06:15:22.969Z,0.80
2022-10-09T06:20:27.309Z,0.70
2022-10-09T06:25:32.029Z,0.70
2022-10-09T06:30:38.516Z,0.80
2022-10-09T06:35:43.753Z,0.70
2022-10-09T06:40:46.684Z,0.73
2022-10-09T06:45:49.677Z,0.70
2022-10-09T06:50:53.994Z,0.80
2022-10-09T06:55:58.708Z,0.63
2022-10-09T07:01:06.682Z,0.70
2022-10-09T07:06:13.981Z,1.00
2022-10-09T07:11:20.890Z,0.70
2022-10-09T07:16:26.000Z,0.87
2022-10-09T07:21:30.443Z,1.00
2022-10-09T07:26:35.704Z,1.17
2022-10-09T07:31:39.812Z,1.40
2022-10-09T07:36:44.122Z,1.70
2022-10-09T07:41:47.720Z,1.80
2022-10-09T07:46:51.537Z,1.90
2022-10-09T07:51:55.853Z,1.73
2022-10-09T07:56:58.777Z,1.47
2022-10-09T08:02:01.713Z,1.20
2022-10-09T08:07:06.210Z,1.30
2022-10-09T08:12:09.163Z,1.60
2022-10-09T08:17:12.229Z,1.60
2022-10-09T08:22:16.513Z,1.60
2022-10-09T08:27:19.460Z,1.60
2022-10-09T08:32:22.411Z,1.60
2022-10-09T08:37:26.689Z,1.20
2022-10-09T08:42:34.014Z,1.07
2022-10-09T08:47:41.967Z,1.27
2022-10-09T08:52:51.079Z,1.10
2022-10-09T08:57:56.637Z,1.10
2022-10-09T09:03:20.536Z,0.97
2022-10-09T09:08:32.731Z,0.90
2022-10-09T09:13:45.439Z,0.93
2022-10-09T09:19:00.493Z,0.90
2022-10-09T09:24:14.725Z,0.90
2022-10-09T09:29:23.150Z,1.10
2022-10-09T09:34:34.752Z,1.33
2022-10-09T09:40:34.988Z,0.80
2022-10-09T09:45:08.636Z,0.90
2022-10-09T09:50:28.621Z,1.00
2022-10-09T09:55:36.849Z,1.00
2022-10-09T10:00:39.943Z,1.17
2022-10-09T10:05:44.991Z,0.97
2022-10-09T10:10:50.127Z,1.50
2022-10-09T10:15:56.236Z,1.00
2022-10-09T10:21:04.357Z,1.47
2022-10-09T10:26:16.252Z,1.10
2022-10-09T10:31:38.386Z,0.90
2022-10-09T10:36:41.449Z,1.20
2022-10-09T10:41:50.596Z,1.20
2022-10-09T10:47:00.043Z,0.90
2022-10-09T10:52:18.320Z,1.57
2022-10-09T10:57:28.072Z,1.60
2022-10-09T11:03:23.333Z,1.70
2022-10-09T11:08:37.626Z,1.33
2022-10-09T11:13:50.126Z,1.20
2022-10-09T11:19:05.988Z,1.50
2022-10-09T11:24:37.162Z,1.37
2022-10-09T11:29:48.876Z,1.10
2022-10-09T11:34:59.003Z,1.40
2022-10-09T11:40:07.050Z,1.00
2022-10-09T11:45:23.164Z,1.43
2022-10-09T11:50:48.955Z,1.20
2022-10-09T11:56:03.840Z,1.33
2022-10-09T12:01:20.337Z,1.03
2022-10-09T12:06:23.416Z,1.20
2022-10-09T12:11:26.950Z,1.30
2022-10-09T12:16:41.068Z,1.20
2022-10-09T12:21:50.331Z,1.30
2022-10-09T12:26:56.294Z,1.15
2022-10-09T12:32:06.471Z,1.07
2022-10-09T12:37:17.957Z,1.13
2022-10-09T12:42:24.407Z,1.00
2022-10-09T12:47:30.822Z,1.00
2022-10-09T12:52:33.854Z,1.10
2022-10-09T12:57:37.132Z,1.23
2022-10-09T13:02:41.979Z,0.70
2022-10-09T13:07:52.518Z,1.30
2022-10-09T13:12:58.836Z,1.00
2022-10-09T13:18:22.517Z,1.10
2022-10-09T13:23:30.931Z,1.03
2022-10-09T13:28:34.265Z,1.40
2022-10-09T13:33:38.711Z,0.80
2022-10-09T13:38:42.835Z,1.23
2022-10-09T13:43:46.112Z,1.10
2022-10-09T13:48:50.456Z,1.10
2022-10-09T13:53:53.766Z,1.00
2022-10-09T13:58:56.708Z,1.20
2022-10-09T14:04:00.979Z,1.02
2022-10-09T14:09:04.379Z,0.65
2022-10-09T14:14:07.540Z,1.75
2022-10-09T14:19:12.106Z,1.88
2022-10-09T14:24:15.509Z,1.30
2022-10-09T14:29:18.728Z,0.93
2022-10-09T14:34:23.163Z,1.10
2022-10-09T14:39:26.132Z,0.90
2022-10-09T14:44:29.244Z,0.85
2022-10-09T14:49:33.684Z,0.95
2022-10-09T14:54:36.771Z,0.70
2022-10-09T14:59:39.717Z,1.00
2022-10-09T15:04:44.096Z,0.88
2022-10-09T15:09:47.396Z,0.82
2022-10-09T15:14:50.593Z,0.85
2022-10-09T15:19:55.299Z,0.70
2022-10-09T15:24:58.251Z,0.90
2022-10-09T15:30:01.200Z,0.93
2022-10-09T15:35:06.195Z,0.60
2022-10-09T15:40:10.400Z,0.50
2022-10-09T15:45:13.485Z,0.60
2022-10-09T15:50:18.328Z,0.40
2022-10-09T15:55:21.423Z,0.60
2022-10-09T16:00:24.452Z,0.27
2022-10-09T16:05:28.820Z,0.53
2022-10-09T16:10:31.993Z,0.50
2022-10-09T16:15:35.020Z,0.60
2022-10-09T16:20:40.457Z,0.40
2022-10-09T16:25:44.260Z,0.50
2022-10-09T16:30:47.197Z,0.67
2022-10-09T16:35:51.561Z,0.60
2022-10-09T16:41:01.728Z,0.60
2022-10-09T16:46:19.431Z,0.50
2022-10-09T16:51:26.412Z,0.40
2022-10-09T16:56:33.287Z,0.30
2022-10-09T17:01:37.754Z,0.50
2022-10-09T17:06:43.759Z,0.40
2022-10-09T17:11:47.157Z,0.43
2022-10-09T17:16:50.103Z,0.63
2022-10-09T17:21:54.762Z,0.40
2022-10-09T17:26:58.346Z,0.70
2022-10-09T17:32:01.357Z,0.30
2022-10-09T17:37:05.646Z,0.67
2022-10-09T17:42:08.721Z,0.60
2022-10-09T17:47:11.715Z,0.83
2022-10-09T17:52:16.547Z,0.40
2022-10-09T17:57:20.068Z,0.90
2022-10-09T18:02:23.029Z,0.77
2022-10-09T18:07:27.352Z,0.80
2022-10-09T18:12:30.312Z,1.20
2022-10-09T18:17:34.401Z,1.57
2022-10-09T18:22:38.956Z,2.30
2022-10-09T18:27:41.891Z,1.60
2022-10-09T18:32:44.807Z,1.47
2022-10-09T18:37:49.153Z,1.10
2022-10-09T18:42:53.084Z,1.03
2022-10-09T18:47:56.874Z,1.30
2022-10-09T18:53:01.579Z,2.00
2022-10-09T18:58:05.847Z,2.00
2022-10-09T19:03:10.419Z,1.40
2022-10-09T19:08:14.747Z,1.40
2022-10-09T19:13:18.633Z,1.00
2022-10-09T19:18:23.348Z,1.20
2022-10-09T19:23:28.755Z,1.17
2022-10-09T19:28:32.834Z,1.17
2022-10-09T19:33:36.243Z,1.27
2022-10-09T19:38:41.430Z,1.40
2022-10-09T19:43:46.275Z,1.10
2022-10-09T19:48:49.556Z,1.07
2022-10-09T19:53:54.769Z,0.90
2022-10-09T19:58:58.918Z,1.00
2022-10-09T20:04:04.253Z,1.30
2022-10-09T20:09:11.488Z,1.20
2022-10-09T20:14:14.473Z,1.20
2022-10-09T20:19:17.430Z,1.00
2022-10-09T20:24:22.600Z,1.37
2022-10-09T20:29:27.127Z,1.60
2022-10-09T20:34:30.104Z,1.20
2022-10-09T20:39:35.321Z,1.17
2022-10-09T20:44:38.272Z,1.17
2022-10-09T20:49:43.492Z,1.17
2022-10-09T20:54:47.897Z,1.20
2022-10-09T20:59:50.889Z,1.10
2022-10-09T21:04:53.851Z,1.00
2022-10-09T21:09:58.114Z,1.17
2022-10-09T21:15:01.137Z,1.10
2022-10-09T21:20:04.457Z,1.00
2022-10-09T21:25:09.791Z,1.30
2022-10-09T21:30:14.584Z,1.13
2022-10-09T21:35:17.613Z,1.20
2022-10-09T21:40:23.651Z,1.03
2022-10-09T21:45:26.561Z,1.20
2022-10-09T21:50:30.089Z,1.03
2022-10-09T21:55:34.428Z,1.40
2022-10-09T22:00:38.871Z,1.20
2022-10-09T22:05:42.495Z,1.27
2022-10-09T22:10:46.791Z,0.90
2022-10-09T22:15:51.312Z,1.70
2022-10-09T22:20:54.886Z,1.30
2022-10-09T22:26:02.389Z,1.40
2022-10-09T22:31:06.737Z,1.27
2022-10-09T22:36:12.913Z,1.27
2022-10-09T22:41:19.638Z,1.30
2022-10-09T22:46:25.294Z,1.40
2022-10-09T22:51:29.334Z,1.20
2022-10-09T22:56:35.536Z,1.17
2022-10-09T23:01:41.601Z,1.40
2022-10-09T23:06:45.952Z,1.20
2022-10-09T23:11:50.233Z,0.80
2022-10-09T23:16:53.190Z,0.80
2022-10-09T23:21:56.105Z,1.00
2022-10-09T23:27:00.369Z,0.80
2022-10-09T23:32:04.192Z,1.10
2022-10-09T23:37:07.110Z,1.20
2022-10-09T23:42:11.575Z,1.30
2022-10-09T23:47:14.535Z,1.00
2022-10-09T23:52:17.470Z,1.20
2022-10-09T23:57:21.784Z,1.10
